sensor_id;sensor_type;location;lat;lon;timestamp;P1;durP1;ratioP1;P2;durP2;ratioP2
69542;SDS011;56762;49.494;11.768;2023-02-01T00:00:04;7.68;;;2.00;;
69542;SDS011;56762;49.494;11.768;2023-02-01T00:02:33;4.38;;;1.80;;
69542;SDS011;56762;49.494;11.768;2023-02-01T00:05:04;4.47;;;2.10;;
69542;SDS011;56762;49.494;11.768;2023-02-01T00:07:32;4.43;;;1.80;;
69542;SDS011;56762;49.494;11.768;2023-02-01T00:10:00;5.20;;;2.03;;
69542;SDS011;56762;49.494;11.768;2023-02-01T00:12:29;4.07;;;1.88;;
69542;SDS011;56762;49.494;11.768;2023-02-01T00:14:57;5.43;;;1.88;;
69542;SDS011;56762;49.494;11.768;2023-02-01T00:17:25;4.33;;;1.93;;
69542;SDS011;56762;49.494;11.768;2023-02-01T00:19:53;4.72;;;1.55;;
69542;SDS011;56762;49.494;11.768;2023-02-01T00:22:22;4.45;;;1.92;;
69542;SDS011;56762;49.494;11.768;2023-02-01T00:24:49;5.53;;;2.15;;
69542;SDS011;56762;49.494;11.768;2023-02-01T00:27:17;3.63;;;1.88;;
69542;SDS011;56762;49.494;11.768;2023-02-01T00:29:47;4.30;;;1.63;;
69542;SDS011;56762;49.494;11.768;2023-02-01T00:32:15;6.38;;;1.95;;
69542;SDS011;56762;49.494;11.768;2023-02-01T00:34:43;5.22;;;1.48;;
69542;SDS011;56762;49.494;11.768;2023-02-01T00:37:10;3.67;;;1.90;;
69542;SDS011;56762;49.494;11.768;2023-02-01T00:39:39;4.20;;;2.13;;
69542;SDS011;56762;49.494;11.768;2023-02-01T00:42:07;5.17;;;1.57;;
69542;SDS011;56762;49.494;11.768;2023-02-01T00:44:36;5.03;;;1.58;;
69542;SDS011;56762;49.494;11.768;2023-02-01T00:47:03;5.30;;;1.90;;
69542;SDS011;56762;49.494;11.768;2023-02-01T00:49:31;3.70;;;1.48;;
69542;SDS011;56762;49.494;11.768;2023-02-01T00:51:59;3.40;;;1.42;;
69542;SDS011;56762;49.494;11.768;2023-02-01T00:54:26;3.33;;;1.40;;
69542;SDS011;56762;49.494;11.768;2023-02-01T00:56:55;2.83;;;1.13;;
69542;SDS011;56762;49.494;11.768;2023-02-01T00:59:23;3.45;;;1.20;;
69542;SDS011;56762;49.494;11.768;2023-02-01T01:01:51;3.10;;;1.00;;
69542;SDS011;56762;49.494;11.768;2023-02-01T01:04:19;3.20;;;1.05;;
69542;SDS011;56762;49.494;11.768;2023-02-01T01:06:46;2.77;;;1.20;;
69542;SDS011;56762;49.494;11.768;2023-02-01T01:09:14;3.20;;;1.38;;
69542;SDS011;56762;49.494;11.768;2023-02-01T01:11:42;3.67;;;1.30;;
69542;SDS011;56762;49.494;11.768;2023-02-01T01:14:11;3.30;;;1.10;;
69542;SDS011;56762;49.494;11.768;2023-02-01T01:16:39;3.70;;;1.50;;
69542;SDS011;56762;49.494;11.768;2023-02-01T01:19:06;3.97;;;1.87;;
69542;SDS011;56762;49.494;11.768;2023-02-01T01:21:34;4.22;;;1.70;;
69542;SDS011;56762;49.494;11.768;2023-02-01T01:24:02;5.20;;;2.15;;
69542;SDS011;56762;49.494;11.768;2023-02-01T01:26:30;4.60;;;2.00;;
69542;SDS011;56762;49.494;11.768;2023-02-01T01:28:58;3.95;;;1.80;;
69542;SDS011;56762;49.494;11.768;2023-02-01T01:31:28;4.53;;;2.10;;
69542;SDS011;56762;49.494;11.768;2023-02-01T01:33:57;5.00;;;2.00;;
69542;SDS011;56762;49.494;11.768;2023-02-01T01:36:26;6.35;;;2.53;;
69542;SDS011;56762;49.494;11.768;2023-02-01T01:38:55;3.83;;;2.03;;
69542;SDS011;56762;49.494;11.768;2023-02-01T01:41:24;4.75;;;2.00;;
69542;SDS011;56762;49.494;11.768;2023-02-01T01:43:54;4.80;;;2.03;;
69542;SDS011;56762;49.494;11.768;2023-02-01T01:46:24;7.88;;;2.97;;
69542;SDS011;56762;49.494;11.768;2023-02-01T01:48:56;6.43;;;2.03;;
69542;SDS011;56762;49.494;11.768;2023-02-01T01:51:28;3.97;;;1.98;;
69542;SDS011;56762;49.494;11.768;2023-02-01T01:54:00;5.25;;;2.20;;
69542;SDS011;56762;49.494;11.768;2023-02-01T01:56:31;6.33;;;2.80;;
69542;SDS011;56762;49.494;11.768;2023-02-01T01:59:01;5.07;;;2.13;;
69542;SDS011;56762;49.494;11.768;2023-02-01T02:01:29;4.18;;;2.20;;
69542;SDS011;56762;49.494;11.768;2023-02-01T02:03:58;5.80;;;2.17;;
69542;SDS011;56762;49.494;11.768;2023-02-01T02:06:29;4.18;;;1.88;;
69542;SDS011;56762;49.494;11.768;2023-02-01T02:09:03;4.07;;;1.73;;
69542;SDS011;56762;49.494;11.768;2023-02-01T02:11:32;4.38;;;1.67;;
69542;SDS011;56762;49.494;11.768;2023-02-01T02:14:00;3.38;;;1.50;;
69542;SDS011;56762;49.494;11.768;2023-02-01T02:16:40;3.85;;;1.85;;
69542;SDS011;56762;49.494;11.768;2023-02-01T02:22:23;4.03;;;1.67;;
69542;SDS011;56762;49.494;11.768;2023-02-01T02:28:34;3.28;;;1.50;;
69542;SDS011;56762;49.494;11.768;2023-02-01T02:31:36;4.85;;;1.83;;
69542;SDS011;56762;49.494;11.768;2023-02-01T02:34:16;3.63;;;1.52;;
69542;SDS011;56762;49.494;11.768;2023-02-01T02:36:52;3.90;;;1.90;;
69542;SDS011;56762;49.494;11.768;2023-02-01T02:43:04;4.13;;;2.03;;
69542;SDS011;56762;49.494;11.768;2023-02-01T02:45:55;5.72;;;2.33;;
69542;SDS011;56762;49.494;11.768;2023-02-01T02:48:58;4.65;;;2.40;;
69542;SDS011;56762;49.494;11.768;2023-02-01T02:51:34;4.87;;;2.17;;
69542;SDS011;56762;49.494;11.768;2023-02-01T02:54:23;6.13;;;2.45;;
69542;SDS011;56762;49.494;11.768;2023-02-01T02:57:15;7.97;;;2.95;;
69542;SDS011;56762;49.494;11.768;2023-02-01T03:00:05;5.22;;;2.55;;
69542;SDS011;56762;49.494;11.768;2023-02-01T03:02:53;5.40;;;2.33;;
69542;SDS011;56762;49.494;11.768;2023-02-01T03:05:40;3.87;;;2.10;;
69542;SDS011;56762;49.494;11.768;2023-02-01T03:08:11;4.28;;;2.00;;
69542;SDS011;56762;49.494;11.768;2023-02-01T03:10:47;5.70;;;2.05;;
69542;SDS011;56762;49.494;11.768;2023-02-01T03:13:26;4.85;;;2.00;;
69542;SDS011;56762;49.494;11.768;2023-02-01T03:16:01;6.18;;;2.20;;
69542;SDS011;56762;49.494;11.768;2023-02-01T03:18:35;5.10;;;2.10;;
69542;SDS011;56762;49.494;11.768;2023-02-01T03:21:09;6.55;;;2.40;;
69542;SDS011;56762;49.494;11.768;2023-02-01T03:23:42;5.38;;;2.35;;
69542;SDS011;56762;49.494;11.768;2023-02-01T03:26:12;6.30;;;2.60;;
69542;SDS011;56762;49.494;11.768;2023-02-01T03:28:43;4.72;;;2.28;;
69542;SDS011;56762;49.494;11.768;2023-02-01T03:31:15;7.50;;;2.47;;
69542;SDS011;56762;49.494;11.768;2023-02-01T03:33:43;5.32;;;2.50;;
69542;SDS011;56762;49.494;11.768;2023-02-01T03:36:18;4.38;;;2.47;;
69542;SDS011;56762;49.494;11.768;2023-02-01T03:38:55;4.53;;;2.08;;
69542;SDS011;56762;49.494;11.768;2023-02-01T03:41:28;4.72;;;2.20;;
69542;SDS011;56762;49.494;11.768;2023-02-01T03:44:04;5.40;;;2.30;;
69542;SDS011;56762;49.494;11.768;2023-02-01T03:46:39;6.28;;;2.33;;
69542;SDS011;56762;49.494;11.768;2023-02-01T03:49:14;4.10;;;1.95;;
69542;SDS011;56762;49.494;11.768;2023-02-01T03:51:47;4.13;;;2.10;;
69542;SDS011;56762;49.494;11.768;2023-02-01T03:54:19;4.60;;;2.10;;
69542;SDS011;56762;49.494;11.768;2023-02-01T03:56:47;5.70;;;2.40;;
69542;SDS011;56762;49.494;11.768;2023-02-01T03:59:15;4.13;;;1.88;;
69542;SDS011;56762;49.494;11.768;2023-02-01T04:01:43;5.13;;;2.10;;
69542;SDS011;56762;49.494;11.768;2023-02-01T04:04:11;6.03;;;2.05;;
69542;SDS011;56762;49.494;11.768;2023-02-01T04:06:46;3.35;;;1.70;;
69542;SDS011;56762;49.494;11.768;2023-02-01T04:09:14;3.83;;;1.90;;
69542;SDS011;56762;49.494;11.768;2023-02-01T04:11:43;3.40;;;1.60;;
69542;SDS011;56762;49.494;11.768;2023-02-01T04:14:11;3.25;;;1.73;;
69542;SDS011;56762;49.494;11.768;2023-02-01T04:16:38;3.85;;;2.03;;
69542;SDS011;56762;49.494;11.768;2023-02-01T04:19:06;3.50;;;1.70;;
69542;SDS011;56762;49.494;11.768;2023-02-01T04:21:34;4.87;;;1.80;;
69542;SDS011;56762;49.494;11.768;2023-02-01T04:24:02;5.22;;;1.77;;
69542;SDS011;56762;49.494;11.768;2023-02-01T04:26:30;3.67;;;2.03;;
69542;SDS011;56762;49.494;11.768;2023-02-01T04:28:59;3.40;;;2.03;;
69542;SDS011;56762;49.494;11.768;2023-02-01T04:31:27;4.82;;;2.13;;
69542;SDS011;56762;49.494;11.768;2023-02-01T04:33:55;4.10;;;1.90;;
69542;SDS011;56762;49.494;11.768;2023-02-01T04:36:23;4.53;;;2.50;;
69542;SDS011;56762;49.494;11.768;2023-02-01T04:38:51;5.63;;;2.60;;
69542;SDS011;56762;49.494;11.768;2023-02-01T04:41:19;5.03;;;2.65;;
69542;SDS011;56762;49.494;11.768;2023-02-01T04:43:49;4.35;;;2.42;;
69542;SDS011;56762;49.494;11.768;2023-02-01T04:46:18;6.27;;;2.47;;
69542;SDS011;56762;49.494;11.768;2023-02-01T04:48:46;5.18;;;2.45;;
69542;SDS011;56762;49.494;11.768;2023-02-01T04:51:14;6.80;;;2.58;;
69542;SDS011;56762;49.494;11.768;2023-02-01T04:53:42;6.63;;;2.83;;
69542;SDS011;56762;49.494;11.768;2023-02-01T04:56:09;5.57;;;2.90;;
69542;SDS011;56762;49.494;11.768;2023-02-01T04:58:37;6.23;;;3.40;;
69542;SDS011;56762;49.494;11.768;2023-02-01T05:01:05;6.68;;;3.42;;
69542;SDS011;56762;49.494;11.768;2023-02-01T05:03:36;6.25;;;3.00;;
69542;SDS011;56762;49.494;11.768;2023-02-01T05:06:03;7.10;;;3.35;;
69542;SDS011;56762;49.494;11.768;2023-02-01T05:08:32;4.78;;;2.45;;
69542;SDS011;56762;49.494;11.768;2023-02-01T05:11:01;6.10;;;3.07;;
69542;SDS011;56762;49.494;11.768;2023-02-01T05:13:29;7.32;;;2.90;;
69542;SDS011;56762;49.494;11.768;2023-02-01T05:16:14;6.00;;;2.97;;
69542;SDS011;56762;49.494;11.768;2023-02-01T05:18:43;8.40;;;3.50;;
69542;SDS011;56762;49.494;11.768;2023-02-01T05:21:12;7.55;;;3.10;;
69542;SDS011;56762;49.494;11.768;2023-02-01T05:23:40;9.93;;;3.73;;
69542;SDS011;56762;49.494;11.768;2023-02-01T05:26:22;6.20;;;2.78;;
69542;SDS011;56762;49.494;11.768;2023-02-01T05:28:50;5.32;;;3.17;;
69542;SDS011;56762;49.494;11.768;2023-02-01T05:31:18;10.63;;;7.40;;
69542;SDS011;56762;49.494;11.768;2023-02-01T05:33:47;8.50;;;4.35;;
69542;SDS011;56762;49.494;11.768;2023-02-01T05:36:15;5.50;;;2.90;;
69542;SDS011;56762;49.494;11.768;2023-02-01T05:38:43;4.72;;;2.33;;
69542;SDS011;56762;49.494;11.768;2023-02-01T05:41:11;4.60;;;2.35;;
69542;SDS011;56762;49.494;11.768;2023-02-01T05:43:39;3.95;;;2.13;;
69542;SDS011;56762;49.494;11.768;2023-02-01T05:46:07;5.43;;;2.20;;
69542;SDS011;56762;49.494;11.768;2023-02-01T05:48:37;4.93;;;2.37;;
69542;SDS011;56762;49.494;11.768;2023-02-01T05:51:06;4.10;;;1.85;;
69542;SDS011;56762;49.494;11.768;2023-02-01T05:53:34;4.47;;;1.75;;
69542;SDS011;56762;49.494;11.768;2023-02-01T05:56:02;4.28;;;2.28;;
69542;SDS011;56762;49.494;11.768;2023-02-01T05:58:30;3.75;;;1.98;;
69542;SDS011;56762;49.494;11.768;2023-02-01T06:00:58;9.63;;;2.23;;
69542;SDS011;56762;49.494;11.768;2023-02-01T06:03:26;5.45;;;2.28;;
69542;SDS011;56762;49.494;11.768;2023-02-01T06:05:55;7.43;;;2.63;;
69542;SDS011;56762;49.494;11.768;2023-02-01T06:08:24;5.13;;;2.67;;
69542;SDS011;56762;49.494;11.768;2023-02-01T06:10:56;4.68;;;2.45;;
69542;SDS011;56762;49.494;11.768;2023-02-01T06:13:25;6.00;;;2.87;;
69542;SDS011;56762;49.494;11.768;2023-02-01T06:15:53;6.88;;;2.70;;
69542;SDS011;56762;49.494;11.768;2023-02-01T06:18:22;7.50;;;3.05;;
69542;SDS011;56762;49.494;11.768;2023-02-01T06:20:53;7.72;;;3.40;;
69542;SDS011;56762;49.494;11.768;2023-02-01T06:23:22;6.30;;;2.55;;
69542;SDS011;56762;49.494;11.768;2023-02-01T06:25:51;6.97;;;2.40;;
69542;SDS011;56762;49.494;11.768;2023-02-01T06:28:19;5.55;;;2.20;;
69542;SDS011;56762;49.494;11.768;2023-02-01T06:30:49;7.15;;;2.85;;
69542;SDS011;56762;49.494;11.768;2023-02-01T06:33:17;4.78;;;2.53;;
69542;SDS011;56762;49.494;11.768;2023-02-01T06:39:06;6.70;;;2.53;;
69542;SDS011;56762;49.494;11.768;2023-02-01T06:41:34;8.98;;;2.22;;
69542;SDS011;56762;49.494;11.768;2023-02-01T06:44:02;6.00;;;2.00;;
69542;SDS011;56762;49.494;11.768;2023-02-01T06:46:33;5.40;;;2.00;;
69542;SDS011;56762;49.494;11.768;2023-02-01T06:49:00;6.22;;;1.85;;
69542;SDS011;56762;49.494;11.768;2023-02-01T06:51:30;7.23;;;1.77;;
69542;SDS011;56762;49.494;11.768;2023-02-01T06:53:58;7.32;;;2.15;;
69542;SDS011;56762;49.494;11.768;2023-02-01T06:56:28;9.48;;;1.80;;
69542;SDS011;56762;49.494;11.768;2023-02-01T06:58:58;7.22;;;1.60;;
69542;SDS011;56762;49.494;11.768;2023-02-01T07:01:28;4.78;;;1.50;;
69542;SDS011;56762;49.494;11.768;2023-02-01T07:03:56;6.00;;;1.83;;
69542;SDS011;56762;49.494;11.768;2023-02-01T07:06:26;4.43;;;1.40;;
69542;SDS011;56762;49.494;11.768;2023-02-01T07:08:54;3.65;;;1.30;;
69542;SDS011;56762;49.494;11.768;2023-02-01T07:11:24;6.65;;;1.50;;
69542;SDS011;56762;49.494;11.768;2023-02-01T07:13:55;6.13;;;1.90;;
69542;SDS011;56762;49.494;11.768;2023-02-01T07:16:22;7.87;;;3.80;;
69542;SDS011;56762;49.494;11.768;2023-02-01T07:18:50;8.98;;;1.70;;
69542;SDS011;56762;49.494;11.768;2023-02-01T07:21:19;9.10;;;2.30;;
69542;SDS011;56762;49.494;11.768;2023-02-01T07:23:47;3.92;;;1.80;;
69542;SDS011;56762;49.494;11.768;2023-02-01T07:26:14;3.92;;;1.90;;
69542;SDS011;56762;49.494;11.768;2023-02-01T07:28:43;5.23;;;2.20;;
69542;SDS011;56762;49.494;11.768;2023-02-01T07:31:15;6.00;;;2.90;;
69542;SDS011;56762;49.494;11.768;2023-02-01T07:33:46;8.07;;;2.60;;
69542;SDS011;56762;49.494;11.768;2023-02-01T07:36:18;4.20;;;1.92;;
69542;SDS011;56762;49.494;11.768;2023-02-01T07:38:46;3.67;;;1.40;;
69542;SDS011;56762;49.494;11.768;2023-02-01T07:41:14;4.77;;;1.40;;
69542;SDS011;56762;49.494;11.768;2023-02-01T07:43:42;2.13;;;1.33;;
69542;SDS011;56762;49.494;11.768;2023-02-01T07:46:11;3.97;;;0.85;;
69542;SDS011;56762;49.494;11.768;2023-02-01T07:48:41;3.72;;;1.10;;
69542;SDS011;56762;49.494;11.768;2023-02-01T07:51:10;3.53;;;1.35;;
69542;SDS011;56762;49.494;11.768;2023-02-01T07:53:40;4.93;;;2.10;;
69542;SDS011;56762;49.494;11.768;2023-02-01T07:56:10;3.03;;;1.38;;
69542;SDS011;56762;49.494;11.768;2023-02-01T07:58:39;3.83;;;1.13;;
69542;SDS011;56762;49.494;11.768;2023-02-01T08:01:11;7.38;;;1.45;;
69542;SDS011;56762;49.494;11.768;2023-02-01T08:03:49;3.92;;;1.30;;
69542;SDS011;56762;49.494;11.768;2023-02-01T08:06:18;4.73;;;1.00;;
69542;SDS011;56762;49.494;11.768;2023-02-01T08:08:46;4.03;;;1.50;;
69542;SDS011;56762;49.494;11.768;2023-02-01T08:11:14;4.88;;;1.42;;
69542;SDS011;56762;49.494;11.768;2023-02-01T08:13:42;4.07;;;1.25;;
69542;SDS011;56762;49.494;11.768;2023-02-01T08:16:11;3.40;;;1.15;;
69542;SDS011;56762;49.494;11.768;2023-02-01T08:18:40;4.70;;;1.10;;
69542;SDS011;56762;49.494;11.768;2023-02-01T08:21:10;7.95;;;2.50;;
69542;SDS011;56762;49.494;11.768;2023-02-01T08:23:39;6.15;;;1.80;;
69542;SDS011;56762;49.494;11.768;2023-02-01T08:26:09;8.98;;;2.55;;
69542;SDS011;56762;49.494;11.768;2023-02-01T08:28:38;5.68;;;1.85;;
69542;SDS011;56762;49.494;11.768;2023-02-01T08:31:07;6.77;;;2.13;;
69542;SDS011;56762;49.494;11.768;2023-02-01T08:33:36;4.47;;;1.35;;
69542;SDS011;56762;49.494;11.768;2023-02-01T08:36:04;4.97;;;1.20;;
69542;SDS011;56762;49.494;11.768;2023-02-01T08:38:35;7.18;;;1.20;;
69542;SDS011;56762;49.494;11.768;2023-02-01T08:41:04;8.68;;;2.08;;
69542;SDS011;56762;49.494;11.768;2023-02-01T08:43:33;5.37;;;1.57;;
69542;SDS011;56762;49.494;11.768;2023-02-01T08:46:01;5.93;;;1.45;;
69542;SDS011;56762;49.494;11.768;2023-02-01T08:48:29;8.82;;;1.80;;
69542;SDS011;56762;49.494;11.768;2023-02-01T08:50:57;8.32;;;1.60;;
69542;SDS011;56762;49.494;11.768;2023-02-01T08:57:11;3.33;;;1.00;;
69542;SDS011;56762;49.494;11.768;2023-02-01T08:59:39;4.95;;;0.98;;
69542;SDS011;56762;49.494;11.768;2023-02-01T09:02:08;7.35;;;1.38;;
69542;SDS011;56762;49.494;11.768;2023-02-01T09:08:20;7.22;;;1.63;;
69542;SDS011;56762;49.494;11.768;2023-02-01T09:10:48;4.70;;;1.37;;
69542;SDS011;56762;49.494;11.768;2023-02-01T09:13:17;6.47;;;1.80;;
69542;SDS011;56762;49.494;11.768;2023-02-01T09:18:56;3.47;;;1.33;;
69542;SDS011;56762;49.494;11.768;2023-02-01T09:21:44;4.68;;;1.40;;
69542;SDS011;56762;49.494;11.768;2023-02-01T09:24:12;5.20;;;1.17;;
69542;SDS011;56762;49.494;11.768;2023-02-01T09:26:41;4.82;;;1.00;;
69542;SDS011;56762;49.494;11.768;2023-02-01T09:29:10;6.25;;;1.00;;
69542;SDS011;56762;49.494;11.768;2023-02-01T09:31:38;4.03;;;1.17;;
69542;SDS011;56762;49.494;11.768;2023-02-01T09:34:18;3.35;;;0.98;;
69542;SDS011;56762;49.494;11.768;2023-02-01T09:36:47;4.47;;;1.23;;
69542;SDS011;56762;49.494;11.768;2023-02-01T09:39:14;10.15;;;2.85;;
69542;SDS011;56762;49.494;11.768;2023-02-01T09:41:45;4.13;;;1.27;;
69542;SDS011;56762;49.494;11.768;2023-02-01T09:44:26;5.85;;;1.92;;
69542;SDS011;56762;49.494;11.768;2023-02-01T09:47:10;4.43;;;1.10;;
69542;SDS011;56762;49.494;11.768;2023-02-01T09:52:51;12.65;;;1.60;;
69542;SDS011;56762;49.494;11.768;2023-02-01T09:55:25;2.83;;;1.33;;
69542;SDS011;56762;49.494;11.768;2023-02-01T09:58:02;6.00;;;1.83;;
69542;SDS011;56762;49.494;11.768;2023-02-01T10:00:35;3.70;;;1.40;;
69542;SDS011;56762;49.494;11.768;2023-02-01T10:03:05;6.37;;;0.90;;
69542;SDS011;56762;49.494;11.768;2023-02-01T10:05:43;5.85;;;1.08;;
69542;SDS011;56762;49.494;11.768;2023-02-01T10:08:24;4.90;;;1.60;;
69542;SDS011;56762;49.494;11.768;2023-02-01T10:11:01;4.40;;;0.95;;
69542;SDS011;56762;49.494;11.768;2023-02-01T10:13:43;7.82;;;1.00;;
69542;SDS011;56762;49.494;11.768;2023-02-01T10:16:25;4.60;;;1.00;;
69542;SDS011;56762;49.494;11.768;2023-02-01T10:19:12;5.25;;;1.13;;
69542;SDS011;56762;49.494;11.768;2023-02-01T10:21:51;6.03;;;1.13;;
69542;SDS011;56762;49.494;11.768;2023-02-01T10:24:28;4.40;;;0.70;;
69542;SDS011;56762;49.494;11.768;2023-02-01T10:27:08;4.63;;;1.48;;
69542;SDS011;56762;49.494;11.768;2023-02-01T10:29:45;6.07;;;1.43;;
69542;SDS011;56762;49.494;11.768;2023-02-01T10:32:20;5.22;;;0.85;;
69542;SDS011;56762;49.494;11.768;2023-02-01T10:34:51;4.45;;;0.90;;
69542;SDS011;56762;49.494;11.768;2023-02-01T10:37:25;8.25;;;1.20;;
69542;SDS011;56762;49.494;11.768;2023-02-01T10:39:55;5.03;;;1.25;;
69542;SDS011;56762;49.494;11.768;2023-02-01T10:42:25;7.67;;;2.07;;
69542;SDS011;56762;49.494;11.768;2023-02-01T10:44:54;6.00;;;1.20;;
69542;SDS011;56762;49.494;11.768;2023-02-01T10:47:26;6.53;;;1.15;;
69542;SDS011;56762;49.494;11.768;2023-02-01T10:49:58;5.72;;;1.10;;
69542;SDS011;56762;49.494;11.768;2023-02-01T10:52:43;6.80;;;1.10;;
69542;SDS011;56762;49.494;11.768;2023-02-01T10:55:28;3.67;;;0.70;;
69542;SDS011;56762;49.494;11.768;2023-02-01T10:58:06;9.02;;;1.10;;
69542;SDS011;56762;49.494;11.768;2023-02-01T11:00:43;5.65;;;0.90;;
69542;SDS011;56762;49.494;11.768;2023-02-01T11:06:10;5.50;;;1.00;;
69542;SDS011;56762;49.494;11.768;2023-02-01T11:08:42;5.23;;;0.87;;
69542;SDS011;56762;49.494;11.768;2023-02-01T11:11:11;5.82;;;0.57;;
69542;SDS011;56762;49.494;11.768;2023-02-01T11:13:39;5.03;;;0.70;;
69542;SDS011;56762;49.494;11.768;2023-02-01T11:16:11;4.60;;;0.65;;
69542;SDS011;56762;49.494;11.768;2023-02-01T11:18:43;4.63;;;0.77;;
69542;SDS011;56762;49.494;11.768;2023-02-01T11:21:13;4.27;;;0.70;;
69542;SDS011;56762;49.494;11.768;2023-02-01T11:23:43;3.78;;;0.70;;
69542;SDS011;56762;49.494;11.768;2023-02-01T11:26:13;4.00;;;0.63;;
69542;SDS011;56762;49.494;11.768;2023-02-01T11:28:46;4.35;;;0.60;;
69542;SDS011;56762;49.494;11.768;2023-02-01T11:31:18;4.00;;;0.82;;
69542;SDS011;56762;49.494;11.768;2023-02-01T11:33:50;3.13;;;0.53;;
69542;SDS011;56762;49.494;11.768;2023-02-01T11:36:21;2.97;;;0.57;;
69542;SDS011;56762;49.494;11.768;2023-02-01T11:38:53;3.95;;;0.85;;
69542;SDS011;56762;49.494;11.768;2023-02-01T11:41:40;2.95;;;0.50;;
69542;SDS011;56762;49.494;11.768;2023-02-01T11:44:18;2.33;;;0.73;;
69542;SDS011;56762;49.494;11.768;2023-02-01T11:46:48;6.20;;;1.00;;
69542;SDS011;56762;49.494;11.768;2023-02-01T11:49:20;4.32;;;0.85;;
69542;SDS011;56762;49.494;11.768;2023-02-01T11:52:00;3.22;;;0.82;;
69542;SDS011;56762;49.494;11.768;2023-02-01T11:54:41;7.18;;;1.00;;
69542;SDS011;56762;49.494;11.768;2023-02-01T11:57:25;6.18;;;1.40;;
69542;SDS011;56762;49.494;11.768;2023-02-01T12:00:06;4.63;;;0.80;;
69542;SDS011;56762;49.494;11.768;2023-02-01T12:05:58;3.35;;;0.95;;
69542;SDS011;56762;49.494;11.768;2023-02-01T12:08:38;4.75;;;1.25;;
69542;SDS011;56762;49.494;11.768;2023-02-01T12:11:25;5.18;;;1.08;;
69542;SDS011;56762;49.494;11.768;2023-02-01T12:14:06;7.57;;;1.20;;
69542;SDS011;56762;49.494;11.768;2023-02-01T12:16:47;5.65;;;0.80;;
69542;SDS011;56762;49.494;11.768;2023-02-01T12:19:32;5.25;;;1.40;;
69542;SDS011;56762;49.494;11.768;2023-02-01T12:22:14;4.00;;;1.17;;
69542;SDS011;56762;49.494;11.768;2023-02-01T12:28:01;5.93;;;1.20;;
69542;SDS011;56762;49.494;11.768;2023-02-01T12:30:56;5.72;;;1.30;;
69542;SDS011;56762;49.494;11.768;2023-02-01T12:33:47;9.43;;;1.10;;
69542;SDS011;56762;49.494;11.768;2023-02-01T12:36:29;6.30;;;1.10;;
69542;SDS011;56762;49.494;11.768;2023-02-01T12:39:07;7.72;;;1.10;;
69542;SDS011;56762;49.494;11.768;2023-02-01T12:41:49;10.20;;;1.33;;
69542;SDS011;56762;49.494;11.768;2023-02-01T12:44:29;5.75;;;1.40;;
69542;SDS011;56762;49.494;11.768;2023-02-01T12:47:05;4.95;;;1.05;;
69542;SDS011;56762;49.494;11.768;2023-02-01T12:49:45;9.82;;;1.92;;
69542;SDS011;56762;49.494;11.768;2023-02-01T12:52:19;8.00;;;2.38;;
69542;SDS011;56762;49.494;11.768;2023-02-01T12:54:53;11.37;;;2.80;;
69542;SDS011;56762;49.494;11.768;2023-02-01T12:57:26;11.77;;;4.47;;
69542;SDS011;56762;49.494;11.768;2023-02-01T13:00:00;9.63;;;2.22;;
69542;SDS011;56762;49.494;11.768;2023-02-01T13:02:34;5.20;;;1.38;;
69542;SDS011;56762;49.494;11.768;2023-02-01T13:05:11;5.82;;;1.42;;
69542;SDS011;56762;49.494;11.768;2023-02-01T13:07:44;5.90;;;1.63;;
69542;SDS011;56762;49.494;11.768;2023-02-01T13:10:18;8.35;;;1.83;;
69542;SDS011;56762;49.494;11.768;2023-02-01T13:13:04;7.90;;;1.55;;
69542;SDS011;56762;49.494;11.768;2023-02-01T13:15:40;10.27;;;1.70;;
69542;SDS011;56762;49.494;11.768;2023-02-01T13:18:13;7.45;;;2.28;;
69542;SDS011;56762;49.494;11.768;2023-02-01T13:20:46;4.30;;;1.20;;
69542;SDS011;56762;49.494;11.768;2023-02-01T13:23:22;5.40;;;1.50;;
69542;SDS011;56762;49.494;11.768;2023-02-01T13:25:54;4.88;;;1.80;;
69542;SDS011;56762;49.494;11.768;2023-02-01T13:28:25;7.40;;;1.85;;
69542;SDS011;56762;49.494;11.768;2023-02-01T13:31:00;8.60;;;1.70;;
69542;SDS011;56762;49.494;11.768;2023-02-01T13:33:54;4.47;;;0.90;;
69542;SDS011;56762;49.494;11.768;2023-02-01T13:36:47;7.20;;;0.93;;
69542;SDS011;56762;49.494;11.768;2023-02-01T13:42:47;7.13;;;1.33;;
69542;SDS011;56762;49.494;11.768;2023-02-01T13:45:18;4.60;;;1.50;;
69542;SDS011;56762;49.494;11.768;2023-02-01T13:47:49;4.63;;;2.10;;
69542;SDS011;56762;49.494;11.768;2023-02-01T13:50:21;6.13;;;2.53;;
69542;SDS011;56762;49.494;11.768;2023-02-01T13:52:51;5.18;;;2.10;;
69542;SDS011;56762;49.494;11.768;2023-02-01T13:55:29;6.60;;;2.38;;
69542;SDS011;56762;49.494;11.768;2023-02-01T13:58:02;6.35;;;2.47;;
69542;SDS011;56762;49.494;11.768;2023-02-01T14:00:40;10.40;;;4.70;;
69542;SDS011;56762;49.494;11.768;2023-02-01T14:03:14;12.65;;;3.30;;
69542;SDS011;56762;49.494;11.768;2023-02-01T14:06:00;8.02;;;2.70;;
69542;SDS011;56762;49.494;11.768;2023-02-01T14:08:44;8.32;;;2.72;;
69542;SDS011;56762;49.494;11.768;2023-02-01T14:11:32;8.77;;;2.92;;
69542;SDS011;56762;49.494;11.768;2023-02-01T14:23:22;7.80;;;2.17;;
69542;SDS011;56762;49.494;11.768;2023-02-01T14:26:01;8.20;;;2.40;;
69542;SDS011;56762;49.494;11.768;2023-02-01T14:28:35;7.10;;;1.50;;
69542;SDS011;56762;49.494;11.768;2023-02-01T14:31:14;5.22;;;1.30;;
69542;SDS011;56762;49.494;11.768;2023-02-01T14:34:00;9.70;;;2.03;;
69542;SDS011;56762;49.494;11.768;2023-02-01T14:36:44;6.32;;;1.52;;
69542;SDS011;56762;49.494;11.768;2023-02-01T14:39:21;5.53;;;1.52;;
69542;SDS011;56762;49.494;11.768;2023-02-01T14:51:13;4.45;;;1.42;;
69542;SDS011;56762;49.494;11.768;2023-02-01T14:53:42;7.35;;;1.92;;
69542;SDS011;56762;49.494;11.768;2023-02-01T14:56:13;5.97;;;1.10;;
69542;SDS011;56762;49.494;11.768;2023-02-01T14:58:48;4.88;;;1.13;;
69542;SDS011;56762;49.494;11.768;2023-02-01T15:01:24;6.00;;;1.48;;
69542;SDS011;56762;49.494;11.768;2023-02-01T15:03:57;4.97;;;1.30;;
69542;SDS011;56762;49.494;11.768;2023-02-01T15:06:35;5.40;;;1.23;;
69542;SDS011;56762;49.494;11.768;2023-02-01T15:09:07;8.43;;;2.07;;
69542;SDS011;56762;49.494;11.768;2023-02-01T15:14:21;8.32;;;1.73;;
69542;SDS011;56762;49.494;11.768;2023-02-01T15:16:49;7.30;;;1.73;;
69542;SDS011;56762;49.494;11.768;2023-02-01T15:19:20;8.63;;;1.60;;
69542;SDS011;56762;49.494;11.768;2023-02-01T15:21:51;5.60;;;1.10;;
69542;SDS011;56762;49.494;11.768;2023-02-01T15:24:22;6.75;;;1.75;;
69542;SDS011;56762;49.494;11.768;2023-02-01T15:26:52;6.05;;;1.63;;
69542;SDS011;56762;49.494;11.768;2023-02-01T15:29:22;6.30;;;1.10;;
69542;SDS011;56762;49.494;11.768;2023-02-01T15:31:53;6.32;;;1.00;;
69542;SDS011;56762;49.494;11.768;2023-02-01T15:34:21;5.20;;;1.00;;
69542;SDS011;56762;49.494;11.768;2023-02-01T15:36:50;9.00;;;1.92;;
69542;SDS011;56762;49.494;11.768;2023-02-01T15:39:33;7.70;;;1.88;;
69542;SDS011;56762;49.494;11.768;2023-02-01T15:42:08;5.15;;;1.38;;
69542;SDS011;56762;49.494;11.768;2023-02-01T15:44:43;9.80;;;1.65;;
69542;SDS011;56762;49.494;11.768;2023-02-01T15:47:13;6.63;;;1.30;;
69542;SDS011;56762;49.494;11.768;2023-02-01T15:49:44;6.47;;;1.67;;
69542;SDS011;56762;49.494;11.768;2023-02-01T15:52:21;9.05;;;2.20;;
69542;SDS011;56762;49.494;11.768;2023-02-01T15:54:52;7.28;;;1.65;;
69542;SDS011;56762;49.494;11.768;2023-02-01T15:57:23;5.90;;;1.40;;
69542;SDS011;56762;49.494;11.768;2023-02-01T15:59:57;7.40;;;1.67;;
69542;SDS011;56762;49.494;11.768;2023-02-01T16:02:28;8.10;;;1.67;;
69542;SDS011;56762;49.494;11.768;2023-02-01T16:05:00;6.78;;;1.45;;